createdAt,value
2022-07-26T00:01:20.742Z,21.10
2022-07-26T00:03:51.257Z,21.10
2022-07-26T00:06:20.863Z,21.10
2022-07-26T00:08:48.085Z,21.00
2022-07-26T00:11:15.432Z,21.00
2022-07-26T00:13:45.616Z,21.00
2022-07-26T00:16:14.920Z,21.10
2022-07-26T00:18:41.896Z,21.00
2022-07-26T00:21:08.860Z,21.00
2022-07-26T00:23:35.708Z,21.00
2022-07-26T00:26:02.615Z,21.00
2022-07-26T00:28:29.362Z,21.00
2022-07-26T00:30:56.083Z,20.90
2022-07-26T00:33:22.803Z,20.80
2022-07-26T00:35:49.621Z,20.70
2022-07-26T00:38:18.534Z,20.80
2022-07-26T00:40:47.546Z,20.70
2022-07-26T00:43:14.291Z,20.80
2022-07-26T00:45:41.273Z,20.80
2022-07-26T00:48:08.097Z,20.80
2022-07-26T00:50:35.422Z,20.70
2022-07-26T00:53:02.357Z,20.60
2022-07-26T00:55:29.254Z,20.70
2022-07-26T00:58:01.132Z,20.60
2022-07-26T01:00:30.398Z,20.60
2022-07-26T01:03:00.379Z,20.50
2022-07-26T01:05:27.660Z,20.40
2022-07-26T01:07:56.659Z,20.40
2022-07-26T01:10:25.721Z,20.40
2022-07-26T01:12:52.462Z,20.50
2022-07-26T01:15:23.296Z,20.50
2022-07-26T01:17:50.019Z,20.50
2022-07-26T01:20:16.807Z,20.40
2022-07-26T01:22:43.652Z,20.50
2022-07-26T01:25:14.951Z,20.50
2022-07-26T01:27:42.593Z,20.40
2022-07-26T01:30:11.571Z,20.40
2022-07-26T01:32:38.767Z,20.40
2022-07-26T01:35:09.213Z,20.30
2022-07-26T01:37:36.066Z,20.30
2022-07-26T01:40:05.991Z,20.20
2022-07-26T01:42:34.121Z,20.20
2022-07-26T01:45:00.864Z,19.90
2022-07-26T01:47:27.667Z,20.20
2022-07-26T01:49:56.684Z,20.20
2022-07-26T01:52:26.635Z,20.30
2022-07-26T01:54:53.373Z,20.30
2022-07-26T01:57:20.088Z,20.30
2022-07-26T01:59:46.823Z,20.30
2022-07-26T02:02:13.622Z,20.20
2022-07-26T02:05:01.406Z,20.20
2022-07-26T02:07:33.847Z,20.20
2022-07-26T02:10:01.030Z,20.20
2022-07-26T02:12:29.893Z,20.20
2022-07-26T02:14:56.823Z,20.20
2022-07-26T02:17:23.722Z,20.20
2022-07-26T02:19:52.672Z,20.20
2022-07-26T02:22:20.131Z,20.10
2022-07-26T02:24:50.238Z,20.10
2022-07-26T02:27:20.652Z,20.00
2022-07-26T02:29:50.087Z,20.00
2022-07-26T02:32:16.926Z,19.90
2022-07-26T02:34:43.804Z,20.00
2022-07-26T02:37:12.765Z,19.90
2022-07-26T02:39:41.656Z,19.90
2022-07-26T02:42:08.393Z,19.90
2022-07-26T02:47:03.324Z,19.90
2022-07-26T02:49:30.075Z,19.70
2022-07-26T02:51:56.862Z,19.60
2022-07-26T02:54:26.002Z,19.50
2022-07-26T02:56:52.794Z,19.50
2022-07-26T02:59:19.519Z,19.50
2022-07-26T03:01:46.252Z,19.40
2022-07-26T03:04:12.977Z,19.40
2022-07-26T03:06:39.739Z,19.20
2022-07-26T03:09:06.531Z,19.20
2022-07-26T03:11:33.275Z,19.20
2022-07-26T03:14:02.620Z,19.20
2022-07-26T03:16:30.513Z,19.20
2022-07-26T03:19:00.096Z,19.20
2022-07-26T03:21:27.082Z,19.20
2022-07-26T03:28:53.029Z,19.40
2022-07-26T03:31:23.496Z,19.30
2022-07-26T03:33:52.566Z,19.20
2022-07-26T03:43:44.046Z,19.50
2022-07-26T03:46:10.906Z,19.40
2022-07-26T03:48:37.971Z,19.30
2022-07-26T04:03:58.986Z,19.40
2022-07-26T04:06:28.189Z,19.40
2022-07-26T04:08:55.336Z,19.40
2022-07-26T04:11:22.223Z,19.40
2022-07-26T04:13:55.527Z,19.40
2022-07-26T04:16:22.597Z,19.30
2022-07-26T04:18:51.916Z,19.40
2022-07-26T04:21:18.698Z,19.40
2022-07-26T04:23:51.297Z,19.40
2022-07-26T04:26:21.557Z,19.40
2022-07-26T04:28:48.372Z,19.40
2022-07-26T04:31:15.469Z,19.40
2022-07-26T04:33:42.418Z,19.50
2022-07-26T04:36:09.355Z,19.50
2022-07-26T04:38:36.365Z,19.50
2022-07-26T04:41:03.303Z,19.50
2022-07-26T04:43:30.140Z,19.50
2022-07-26T04:46:00.569Z,19.50
2022-07-26T04:48:28.206Z,19.40
2022-07-26T04:50:57.479Z,19.50
2022-07-26T05:18:48.755Z,19.60
2022-07-26T05:21:20.944Z,19.60
2022-07-26T05:23:47.777Z,19.60
2022-07-26T05:26:14.894Z,19.70
2022-07-26T05:28:41.800Z,19.70
2022-07-26T05:31:08.650Z,19.70
2022-07-26T05:33:37.985Z,19.70
2022-07-26T05:36:05.164Z,19.60
2022-07-26T05:38:31.836Z,19.70
2022-07-26T05:40:58.566Z,19.70
2022-07-26T05:43:27.692Z,19.80
2022-07-26T05:46:09.863Z,19.80
2022-07-26T05:53:37.055Z,19.90
2022-07-26T05:56:04.187Z,19.80
2022-07-26T05:58:30.974Z,19.90
2022-07-26T06:00:57.745Z,19.90
2022-07-26T06:03:26.937Z,19.90
2022-07-26T06:05:56.670Z,20.00
2022-07-26T06:08:25.028Z,20.00
2022-07-26T06:10:55.108Z,20.00
2022-07-26T06:13:24.901Z,20.00
2022-07-26T06:15:52.488Z,20.10
2022-07-26T06:18:19.535Z,20.10
2022-07-26T06:20:48.996Z,20.30
2022-07-26T06:25:46.085Z,20.50
2022-07-26T06:28:14.917Z,20.60
2022-07-26T06:30:46.442Z,20.70
2022-07-26T06:33:13.201Z,20.80
2022-07-26T06:35:39.960Z,20.70
2022-07-26T06:38:08.914Z,20.60
2022-07-26T06:40:36.184Z,20.60
2022-07-26T06:43:05.182Z,20.50
2022-07-26T06:45:34.828Z,20.50
2022-07-26T06:48:01.731Z,20.40
2022-07-26T06:50:33.361Z,20.40
2022-07-26T06:53:00.108Z,20.50
2022-07-26T06:55:29.053Z,20.40
2022-07-26T06:57:55.829Z,20.40
2022-07-26T07:00:22.735Z,20.30
2022-07-26T07:02:51.618Z,20.30
2022-07-26T07:05:18.402Z,20.50
2022-07-26T07:07:49.868Z,20.40
2022-07-26T07:10:19.267Z,20.40
2022-07-26T07:12:51.883Z,20.30
2022-07-26T07:15:21.094Z,20.40
2022-07-26T07:17:48.381Z,20.50
2022-07-26T07:20:17.247Z,20.50
2022-07-26T07:22:44.071Z,20.60
2022-07-26T07:25:11.350Z,20.60
2022-07-26T07:27:42.035Z,20.60
2022-07-26T07:30:12.115Z,20.70
2022-07-26T07:32:39.009Z,20.70
2022-07-26T07:35:12.869Z,20.70
2022-07-26T07:37:52.619Z,20.80
2022-07-26T07:40:21.584Z,20.80
2022-07-26T07:42:50.700Z,20.80
2022-07-26T07:45:17.660Z,20.90
2022-07-26T07:47:47.017Z,20.90
2022-07-26T07:50:18.394Z,20.90
2022-07-26T07:52:47.413Z,20.80
2022-07-26T07:55:36.947Z,20.80
2022-07-26T07:58:03.543Z,20.90
2022-07-26T08:00:30.363Z,20.90
2022-07-26T08:02:59.435Z,21.00
2022-07-26T08:05:26.225Z,21.00
2022-07-26T08:07:53.069Z,21.20
2022-07-26T08:10:20.160Z,21.30
2022-07-26T08:12:52.015Z,21.30
2022-07-26T08:15:19.464Z,21.30
2022-07-26T08:17:53.756Z,21.50
2022-07-26T08:20:23.675Z,21.50
2022-07-26T08:22:54.552Z,21.40
2022-07-26T08:25:21.653Z,21.60
2022-07-26T08:30:33.938Z,21.90
2022-07-26T08:33:03.683Z,21.80
2022-07-26T08:38:00.697Z,22.40
2022-07-26T08:40:28.159Z,22.10
2022-07-26T08:42:59.296Z,22.10
2022-07-26T08:45:30.438Z,22.30
2022-07-26T08:48:19.118Z,22.20
2022-07-26T08:50:46.023Z,22.30
2022-07-26T08:53:13.135Z,22.20
2022-07-26T08:56:05.505Z,22.30
2022-07-26T08:58:27.108Z,22.30
2022-07-26T09:01:04.847Z,22.20
2022-07-26T09:03:32.108Z,22.30
2022-07-26T09:06:11.935Z,22.50
2022-07-26T09:08:41.189Z,22.60
2022-07-26T09:11:29.120Z,22.60
2022-07-26T09:14:00.656Z,22.50
2022-07-26T09:16:28.635Z,22.40
2022-07-26T09:18:57.217Z,22.40
2022-07-26T09:21:33.813Z,22.50
2022-07-26T09:24:02.852Z,22.60
2022-07-26T09:26:29.686Z,22.80
2022-07-26T09:29:22.512Z,22.80
2022-07-26T09:31:49.294Z,22.90
2022-07-26T09:34:25.346Z,22.90
2022-07-26T09:50:18.275Z,23.70
2022-07-26T09:53:22.786Z,23.40
2022-07-26T10:21:27.153Z,22.90
2022-07-26T10:24:25.136Z,23.00
2022-07-26T10:26:54.237Z,22.90
2022-07-26T10:29:26.460Z,22.80
2022-07-26T10:32:15.310Z,22.90
2022-07-26T10:34:42.493Z,23.00
2022-07-26T10:37:19.983Z,23.00
2022-07-26T10:39:46.766Z,23.00
2022-07-26T10:42:13.509Z,23.10
2022-07-26T10:44:45.199Z,23.10
2022-07-26T10:47:15.894Z,23.10
2022-07-26T10:49:58.429Z,23.00
2022-07-26T10:52:32.802Z,22.90
2022-07-26T10:54:59.533Z,22.80
2022-07-26T10:57:30.345Z,22.80
2022-07-26T10:59:59.088Z,22.90
2022-07-26T11:02:37.380Z,22.90
2022-07-26T11:05:15.584Z,22.90
2022-07-26T11:08:08.832Z,23.00
2022-07-26T11:10:45.494Z,23.00
2022-07-26T11:13:23.708Z,23.00
2022-07-26T11:15:58.668Z,23.10
2022-07-26T11:18:30.067Z,23.00
2022-07-26T11:20:58.762Z,23.00
2022-07-26T11:23:31.684Z,23.10
2022-07-26T11:26:17.400Z,23.10
2022-07-26T11:52:16.367Z,23.80
2022-07-26T11:59:51.970Z,24.60
2022-07-26T12:02:23.109Z,24.60
2022-07-26T12:04:50.040Z,24.50
2022-07-26T12:07:20.161Z,24.20
2022-07-26T12:09:48.079Z,24.20
2022-07-26T12:12:29.381Z,24.30
2022-07-26T12:15:05.724Z,24.20
2022-07-26T12:17:35.508Z,24.30
2022-07-26T12:20:19.403Z,24.50
2022-07-26T12:22:55.952Z,24.40
2022-07-26T12:25:31.571Z,24.30
2022-07-26T12:28:00.699Z,24.20
2022-07-26T12:30:30.947Z,24.10
2022-07-26T12:35:35.327Z,23.70
2022-07-26T12:38:05.119Z,23.40
2022-07-26T12:40:41.257Z,23.20
2022-07-26T12:53:06.119Z,22.70
2022-07-26T12:55:33.978Z,22.60
2022-07-26T12:58:00.810Z,22.60
2022-07-26T13:00:28.619Z,22.70
2022-07-26T13:02:57.404Z,22.70
2022-07-26T13:05:24.470Z,22.70
2022-07-26T13:07:55.486Z,22.70
2022-07-26T13:13:00.164Z,23.00
2022-07-26T13:15:35.196Z,23.40
2022-07-26T13:18:05.389Z,23.50
2022-07-26T13:20:32.628Z,23.30
2022-07-26T13:22:59.355Z,23.30
2022-07-26T13:25:34.022Z,23.70
2022-07-26T13:28:08.653Z,23.90
2022-07-26T13:33:05.008Z,24.00
2022-07-26T13:35:34.253Z,24.00
2022-07-26T13:38:02.074Z,24.30
2022-07-26T13:40:31.482Z,24.40
2022-07-26T13:42:58.980Z,24.30
2022-07-26T13:45:29.148Z,24.10
2022-07-26T13:47:56.416Z,24.00
2022-07-26T13:50:23.280Z,23.70
2022-07-26T13:52:50.098Z,23.70
2022-07-26T13:55:16.886Z,23.90
2022-07-26T13:57:53.298Z,24.00
2022-07-26T14:00:23.222Z,24.20
2022-07-26T14:02:50.095Z,24.20
2022-07-26T14:05:16.917Z,24.40
2022-07-26T14:07:43.685Z,24.40
2022-07-26T14:12:44.112Z,24.90
2022-07-26T14:15:15.153Z,24.80
2022-07-26T14:17:47.551Z,24.70
2022-07-26T14:20:14.758Z,24.60
2022-07-26T14:22:41.524Z,24.40
2022-07-26T14:25:12.817Z,24.20
2022-07-26T14:27:39.637Z,24.30
2022-07-26T14:30:09.165Z,24.60
2022-07-26T14:32:35.988Z,24.80
2022-07-26T14:35:02.842Z,24.90
2022-07-26T14:37:44.438Z,25.30
2022-07-26T14:40:16.242Z,25.30
2022-07-26T14:42:45.970Z,25.30
2022-07-26T14:57:39.079Z,24.60
2022-07-26T15:00:09.275Z,24.60
2022-07-26T15:02:39.208Z,24.60
2022-07-26T15:05:06.316Z,24.60
2022-07-26T15:07:33.027Z,24.50
2022-07-26T15:09:59.800Z,24.40
2022-07-26T15:12:26.758Z,24.40
2022-07-26T15:14:55.703Z,24.30
2022-07-26T15:17:22.441Z,24.50
2022-07-26T15:19:51.503Z,24.60
2022-07-26T15:22:18.290Z,24.50
2022-07-26T15:24:45.216Z,24.40
2022-07-26T15:27:11.964Z,24.30
2022-07-26T15:29:38.859Z,24.30
2022-07-26T15:32:06.482Z,24.30
2022-07-26T15:37:01.380Z,23.90
2022-07-26T15:39:28.086Z,23.70
2022-07-26T15:41:55.190Z,23.70
2022-07-26T15:44:25.645Z,23.80
2022-07-26T15:46:52.760Z,23.90
2022-07-26T15:49:19.713Z,24.00
2022-07-26T15:51:47.296Z,24.20
2022-07-26T15:54:17.591Z,24.20
2022-07-26T15:56:44.547Z,24.20
2022-07-26T15:59:11.775Z,24.00
2022-07-26T16:04:06.473Z,24.20
2022-07-26T16:06:36.118Z,23.60
2022-07-26T16:11:44.946Z,23.20
2022-07-26T16:14:11.743Z,23.20
2022-07-26T16:16:38.573Z,23.30
2022-07-26T16:19:05.371Z,23.30
2022-07-26T16:21:32.419Z,23.20
2022-07-26T16:24:04.459Z,23.30
2022-07-26T16:26:33.451Z,23.30
2022-07-26T16:29:00.775Z,23.20
2022-07-26T17:13:56.578Z,22.30
2022-07-26T17:21:31.153Z,22.10
2022-07-26T17:24:00.498Z,22.10
2022-07-26T17:26:30.416Z,22.10
2022-07-26T17:29:00.293Z,22.10
2022-07-26T17:31:27.069Z,22.10
2022-07-26T17:33:56.345Z,22.10
2022-07-26T17:36:24.338Z,22.10
2022-07-26T17:38:51.661Z,22.10
2022-07-26T17:41:21.607Z,22.10
2022-07-26T17:43:53.942Z,22.10
2022-07-26T17:46:21.770Z,22.00
2022-07-26T17:48:48.999Z,22.00
2022-07-26T17:51:17.470Z,22.10
2022-07-26T18:26:03.323Z,21.50
2022-07-26T18:30:57.290Z,21.60
2022-07-26T18:33:24.103Z,21.50
2022-07-26T18:35:53.826Z,21.50
2022-07-26T18:38:20.542Z,21.50
2022-07-26T19:32:42.491Z,21.00
2022-07-26T19:35:10.022Z,21.10
2022-07-26T19:37:36.867Z,21.10
2022-07-26T19:40:06.766Z,20.90
2022-07-26T19:42:33.857Z,20.90
2022-07-26T19:45:03.402Z,21.00
2022-07-26T19:47:30.130Z,20.90
2022-07-26T19:49:57.498Z,20.90
2022-07-26T19:52:24.324Z,20.90
2022-07-26T19:54:55.416Z,20.90
2022-07-26T19:57:22.299Z,20.90
2022-07-26T19:59:51.709Z,21.00
2022-07-26T20:02:20.863Z,20.90
2022-07-26T20:04:49.898Z,20.90
2022-07-26T20:07:19.468Z,20.90
2022-07-26T20:09:48.158Z,20.90
2022-07-26T20:17:16.512Z,20.60
2022-07-26T20:19:43.350Z,20.60
2022-07-26T20:22:10.205Z,20.60
2022-07-26T20:24:38.193Z,20.60
2022-07-26T20:27:08.352Z,20.60
2022-07-26T20:29:35.497Z,20.60
2022-07-26T20:32:02.553Z,20.50
2022-07-26T20:34:31.797Z,20.50
2022-07-26T20:36:58.584Z,20.50
2022-07-26T20:39:27.721Z,20.50
2022-07-26T20:41:54.786Z,20.50
2022-07-26T21:04:11.984Z,20.20
2022-07-26T21:06:38.951Z,20.20
2022-07-26T21:59:22.020Z,19.90
2022-07-26T22:01:48.885Z,19.90
2022-07-26T22:04:18.130Z,20.00
2022-07-26T22:06:45.244Z,20.00
2022-07-26T22:09:12.370Z,20.00
2022-07-26T22:11:39.340Z,20.00
2022-07-26T22:14:08.428Z,20.00
2022-07-26T22:16:39.980Z,20.00
2022-07-26T22:19:06.925Z,20.00
2022-07-26T22:21:33.747Z,20.00
2022-07-26T22:24:00.497Z,20.10
2022-07-26T22:26:31.072Z,20.00
2022-07-26T22:29:00.483Z,19.90
2022-07-26T22:31:27.312Z,20.00
2022-07-26T22:33:54.065Z,19.90
2022-07-26T22:36:21.567Z,20.00
2022-07-26T22:38:50.643Z,20.00
2022-07-26T22:41:20.008Z,20.00
2022-07-26T23:23:52.308Z,19.50
2022-07-26T23:26:19.197Z,19.50
2022-07-26T23:28:45.977Z,19.50
2022-07-26T23:31:14.249Z,19.50
2022-07-26T23:33:53.120Z,19.50
2022-07-26T23:36:25.552Z,19.50
2022-07-26T23:38:52.968Z,19.40
2022-07-26T23:41:22.659Z,19.20
2022-07-26T23:43:49.778Z,19.20
2022-07-26T23:46:17.193Z,19.00
2022-07-26T23:48:44.228Z,18.90
2022-07-26T23:51:11.087Z,18.90
2022-07-26T23:53:37.909Z,19.00
2022-07-26T23:56:04.964Z,19.00
2022-07-26T23:58:31.746Z,19.00
